Station Historical Data
Daily Summary for June 6, 2017 Units:  Metric    English   Both
« Previous Day
Next Day »
Daily Weekly Monthly Yearly Custom
  High: Low: Average:
Temperature: 25.8 °C 20.2 °C 22.6 °C
Dew Point: 21.4 °C 19 °C 20.2 °C
Humidity: 95% 71% 87%
Wind Speed: 0km/h 0km/h 0km/h
Wind Gust: 4.8km/h - -
Wind- -
Pressure: 1010 hPa 1006.7 hPa -
Precipitation: 0 mm    
Historical Graphs
 
 
Tabular Data for June 6, 2017
Time Temperature Dew Point Pressure Wind Wind Speed Wind Gust Humidity Rainfall Rate (Hourly) solar Conditions
00:00 20.9 °C 19.8 °C 1010 hPa Calm     93% 0 mm WeatherDisplay:10.37 W/m2 RA
00:10 20.9 °C 19.8 °C 1010 hPa Calm     93% 0 mm WeatherDisplay:10.37 W/m2 SCT
00:20 20.9 °C 19.7 °C 1010 hPa Calm     93% 0 mm WeatherDisplay:10.37 W/m2 SCT
00:30 20.9 °C 19.7 °C 1009.7 hPa Calm     93% 0 mm WeatherDisplay:10.37 W/m2 SCT
00:40 20.8 °C 19.7 °C 1009.7 hPa Calm     93% 0 mm WeatherDisplay:10.37 W/m2 SCT
00:50 20.8 °C 19.6 °C 1010 hPa Calm     93% 0 mm WeatherDisplay:10.37 W/m2 SCT
01:00 20.8 °C 19.6 °C 1009.7 hPa Calm     93% 0 mm WeatherDisplay:10.37 W/m2 SCT
01:10 20.7 °C 19.6 °C 1010 hPa Calm     93% 0 mm WeatherDisplay:10.37 W/m2 SCT
01:20 20.7 °C 19.6 °C 1010 hPa Calm     93% 0 mm WeatherDisplay:10.37 W/m2 SCT
01:30 20.7 °C 19.6 °C 1010 hPa Calm     93% 0 mm WeatherDisplay:10.37 W/m2 SCT
01:40 20.7 °C 19.6 °C 1010 hPa Calm     93% 0 mm WeatherDisplay:10.37 W/m2 SCT
01:50 20.7 °C 19.5 °C 1009.7 hPa Calm     93% 0 mm WeatherDisplay:10.37 W/m2 SCT
02:00 20.7 °C 19.5 °C 1009.7 hPa Calm     93% 0 mm WeatherDisplay:10.37 W/m2 SCT
02:10 20.7 °C 19.5 °C 1009.7 hPa Calm     93% 0 mm WeatherDisplay:10.37 W/m2 SCT
02:20 20.7 °C 19.5 °C 1009.7 hPa Calm     93% 0 mm WeatherDisplay:10.37 W/m2 SCT
02:30 20.3 °C 19.1 °C 1009.7 hPa Calm     93% 0 mm WeatherDisplay:10.37 W/m2 SCT
02:40 20.2 °C 19 °C 1009.4 hPa Calm     93% 0 mm WeatherDisplay:10.37 W/m2 SCT
02:50 20.2 °C 19 °C 1009.4 hPa Calm     93% 0 mm WeatherDisplay:10.37 W/m2 SCT
03:00 20.2 °C 19 °C 1009.4 hPa Calm     93% 0 mm WeatherDisplay:10.37 W/m2 SCT
03:10 20.2 °C 19 °C 1009.4 hPa Calm     93% 0 mm WeatherDisplay:10.37 W/m2 SCT
03:20 20.2 °C 19 °C 1009.4 hPa Calm     93% 0 mm WeatherDisplay:10.37 W/m2 SCT
03:30 20.2 °C 19 °C 1009.4 hPa Calm     93% 0 mm WeatherDisplay:10.37 W/m2 SCT
03:40 20.2 °C 19 °C 1009.4 hPa Calm     93% 0 mm WeatherDisplay:10.37 W/m2 SCT
03:50 20.2 °C 19 °C 1009.4 hPa Calm     93% 0 mm WeatherDisplay:10.37 W/m2 SCT
04:00 20.2 °C 19 °C 1009.4 hPa Calm     93% 0 mm WeatherDisplay:10.37 W/m2 SCT
04:10 20.2 °C 19 °C 1009 hPa Calm     93% 0 mm WeatherDisplay:10.37 W/m2 SCT
04:20 20.2 °C 19 °C 1009 hPa Calm     93% 0 mm WeatherDisplay:10.37 W/m2 SCT
04:40 20.2 °C 19 °C 1009 hPa Calm     93% 0 mm WeatherDisplay:10.37 W/m2 SCT
04:50 20.2 °C 19 °C 1009 hPa Calm     93% 0 mm WeatherDisplay:10.37 W/m2 SCT
05:00 20.2 °C 19 °C 1009 hPa Calm     93% 0 mm WeatherDisplay:10.37 W/m2 SCT
05:10 20.2 °C 19 °C 1009 hPa Calm     93% 0 mm WeatherDisplay:10.37 W/m2 SCT
05:20 20.2 °C 19 °C 1009 hPa Calm     93% 0 mm WeatherDisplay:10.37 W/m2 SCT
05:30 20.2 °C 19 °C 1008.7 hPa Calm     93% 0 mm WeatherDisplay:10.37 W/m2 SCT
05:40 20.2 °C 19 °C 1009 hPa Calm     93% 0 mm WeatherDisplay:10.37 W/m2 SCT
05:50 20.2 °C 19 °C 1009 hPa Calm     93% 0 mm WeatherDisplay:10.37 W/m2 SCT
06:00 20.2 °C 19 °C 1009 hPa Calm     93% 0 mm WeatherDisplay:10.37 W/m2 SCT
06:10 20.2 °C 19 °C 1009 hPa Calm     93% 0 mm WeatherDisplay:10.37 W/m2 SCT
06:30 20.2 °C 19 °C 1009.4 hPa Calm     93% 0 mm WeatherDisplay:10.37 W/m2 SCT
06:40 20.2 °C 19 °C 1009.4 hPa Calm     93% 0 mm WeatherDisplay:10.37 W/m2 SCT
06:50 20.2 °C 19 °C 1009.4 hPa Calm     93% 0 mm WeatherDisplay:10.37 W/m2 SCT
07:00 20.2 °C 19 °C 1009.4 hPa Calm     93% 0 mm WeatherDisplay:10.37 W/m2 SCT
07:10 20.2 °C 19 °C 1009.7 hPa Calm     93% 0 mm WeatherDisplay:10.37 W/m2 SCT
07:20 20.2 °C 19 °C 1009.7 hPa Calm     93% 0 mm WeatherDisplay:10.37 W/m2 SCT
07:30 20.2 °C 19 °C 1009.7 hPa Calm     93% 0 mm WeatherDisplay:10.37 W/m2 SCT
07:40 20.2 °C 19 °C 1009.7 hPa Calm     93% 0 mm WeatherDisplay:10.37 W/m2 SCT
07:50 20.2 °C 19 °C 1009.7 hPa Calm     93% 0 mm WeatherDisplay:10.37 W/m2 SCT
08:00 20.2 °C 19 °C 1009.7 hPa Calm     93% 0 mm WeatherDisplay:10.37 W/m2 SCT
08:10 20.2 °C 19 °C 1009.7 hPa Calm     93% 0 mm WeatherDisplay:10.37 W/m2 SCT
08:20 20.2 °C 19 °C 1009.7 hPa Calm     93% 0 mm WeatherDisplay:10.37 W/m2 SCT
08:30 21.3 °C 20.3 °C 1009.7 hPa Calm     94% 0 mm WeatherDisplay:10.37 W/m2 SCT
08:40 21.4 °C 20.4 °C 1009.7 hPa Calm   1.6 km/h 94% 0 mm WeatherDisplay:10.37 W/m2 SCT
08:50 21.6 °C 20.6 °C 1009.4 hPa Calm   1.6 km/h 94% 0 mm WeatherDisplay:10.37 W/m2 SCT
09:00 21.9 °C 20.9 °C 1009.4 hPa Calm   3.2 km/h 94% 0 mm WeatherDisplay:10.37 W/m2 SCT
09:10 22 °C 20.8 °C 1009.4 hPa Calm   3.2 km/h 93% 0 mm WeatherDisplay:10.37 W/m2 SCT
09:20 22.3 °C 20.8 °C 1009.4 hPa Calm   3.2 km/h 91% 0 mm WeatherDisplay:10.37 W/m2 SCT
09:30 22.6 °C 20.7 °C 1009.4 hPa Calm   1.6 km/h 89% 0 mm WeatherDisplay:10.37 W/m2 SCT
09:40 22.8 °C 20.9 °C 1009.7 hPa Calm     89% 0 mm WeatherDisplay:10.37 W/m2 SCT
09:50 22.9 °C 20.8 °C 1009.4 hPa Calm   1.6 km/h 88% 0 mm WeatherDisplay:10.37 W/m2 SCT
10:00 23.1 °C 20.4 °C 1009.4 hPa Calm   1.6 km/h 85% 0 mm WeatherDisplay:10.37 W/m2 SCT
10:10 23.2 °C 20.6 °C 1009.4 hPa Calm   1.6 km/h 85% 0 mm WeatherDisplay:10.37 W/m2 SCT
10:20 23.4 °C 20.7 °C 1009.4 hPa Calm   1.6 km/h 85% 0 mm WeatherDisplay:10.37 W/m2 SCT
10:30 23.6 °C 20.3 °C 1009.4 hPa Calm   3.2 km/h 82% 0 mm WeatherDisplay:10.37 W/m2 SCT
10:40 23.7 °C 20.7 °C 1009.7 hPa Calm   3.2 km/h 83% 0 mm WeatherDisplay:10.37 W/m2 SCT
10:50 23.8 °C 20.8 °C 1009.4 hPa Calm   1.6 km/h 83% 0 mm WeatherDisplay:10.37 W/m2 SCT
11:00 24.1 °C 21.1 °C 1009.4 hPa Calm   1.6 km/h 83% 0 mm WeatherDisplay:10.37 W/m2 SCT
11:10 24.5 °C 21 °C 1009.4 hPa Calm   1.6 km/h 81% 0 mm WeatherDisplay:10.37 W/m2 SCT
11:20 24.8 °C 21.1 °C 1009 hPa Calm   3.2 km/h 80% 0 mm WeatherDisplay:10.37 W/m2 SCT
11:30 25.1 °C 21.4 °C 1009 hPa Calm   1.6 km/h 80% 0 mm WeatherDisplay:10.37 W/m2 SCT
11:40 24.9 °C 20.4 °C 1009.4 hPa Calm   3.2 km/h 76% 0 mm WeatherDisplay:10.37 W/m2 SCT
11:50 25 °C 21.1 °C 1009 hPa Calm   1.6 km/h 79% 0 mm WeatherDisplay:10.37 W/m2 SCT
12:00 25.1 °C 21.2 °C 1009 hPa Calm   1.6 km/h 79% 0 mm WeatherDisplay:10.37 W/m2 SCT
12:10 25.4 °C 20.8 °C 1009 hPa Calm   1.6 km/h 76% 0 mm WeatherDisplay:10.37 W/m2 SCT
12:20 25.8 °C 20.1 °C 1009 hPa Calm   3.2 km/h 71% 0 mm WeatherDisplay:10.37 W/m2 SCT
12:30 25.7 °C 20.7 °C 1008.7 hPa Calm   1.6 km/h 74% 0 mm WeatherDisplay:10.37 W/m2 SCT
12:40 25.5 °C 21 °C 1008.7 hPa Calm   1.6 km/h 76% 0 mm WeatherDisplay:10.37 W/m2 SCT
12:50 25.5 °C 20.7 °C 1008.7 hPa Calm   1.6 km/h 75% 0 mm WeatherDisplay:10.37 W/m2 SCT
13:00 25.5 °C 21.2 °C 1008.4 hPa Calm   1.6 km/h 77% 0 mm WeatherDisplay:10.37 W/m2 SCT
13:10 25.5 °C 20.9 °C 1008.4 hPa Calm   1.6 km/h 76% 0 mm WeatherDisplay:10.37 W/m2 SCT
13:20 25.4 °C 20.4 °C 1008.4 hPa Calm   1.6 km/h 74% 0 mm WeatherDisplay:10.37 W/m2 SCT
13:30 25.2 °C 20 °C 1008.4 hPa Calm   4.8 km/h 73% 0 mm WeatherDisplay:10.37 W/m2 SCT
13:40 25.2 °C 20.5 °C 1008.4 hPa Calm   1.6 km/h 75% 0 mm WeatherDisplay:10.37 W/m2 SCT
13:50 25.3 °C 20.5 °C 1008 hPa Calm   4.8 km/h 75% 0 mm WeatherDisplay:10.37 W/m2 SCT
14:00 25.3 °C 20.7 °C 1008.4 hPa Calm   1.6 km/h 76% 0 mm WeatherDisplay:10.37 W/m2 SCT
14:10 25.3 °C 21.2 °C 1008.4 hPa Calm   1.6 km/h 78% 0 mm WeatherDisplay:10.37 W/m2 SCT
14:20 25.2 °C 21.3 °C 1008.4 hPa Calm   3.2 km/h 79% 0 mm WeatherDisplay:10.37 W/m2 SCT
14:30 25 °C 21.1 °C 1008 hPa Calm   3.2 km/h 79% 0 mm WeatherDisplay:10.37 W/m2 SCT
14:40 24.9 °C 21.2 °C 1008 hPa Calm   1.6 km/h 80% 0 mm WeatherDisplay:10.37 W/m2 SCT
14:50 24.9 °C 21 °C 1007.7 hPa Calm   1.6 km/h 79% 0 mm WeatherDisplay:10.37 W/m2 SCT
15:00 24.8 °C 21.3 °C 1007.7 hPa Calm   1.6 km/h 81% 0 mm WeatherDisplay:10.37 W/m2 SCT
15:10 24.8 °C 21.3 °C 1007.7 hPa Calm     81% 0 mm WeatherDisplay:10.37 W/m2 SCT
15:20 24.8 °C 21.2 °C 1007.7 hPa Calm   1.6 km/h 80% 0 mm WeatherDisplay:10.37 W/m2 SCT
15:30 24.8 °C 20.9 °C 1007.3 hPa Calm   1.6 km/h 79% 0 mm WeatherDisplay:10.37 W/m2 SCT
15:40 24.8 °C 21.1 °C 1007.3 hPa Calm   3.2 km/h 80% 0 mm WeatherDisplay:10.37 W/m2 SCT
15:50 24.8 °C 20.7 °C 1007.3 hPa Calm     78% 0 mm WeatherDisplay:10.37 W/m2 SCT
16:00 24.7 °C 20.6 °C 1007.3 hPa Calm     78% 0 mm WeatherDisplay:10.37 W/m2 SCT
16:10 24.6 °C 20.9 °C 1007.3 hPa Calm     80% 0 mm WeatherDisplay:10.37 W/m2 SCT
16:20 24.4 °C 20.6 °C 1007 hPa Calm   1.6 km/h 79% 0 mm WeatherDisplay:10.37 W/m2 SCT
16:30 24.3 °C 20.6 °C 1007.3 hPa Calm     80% 0 mm WeatherDisplay:10.37 W/m2 SCT
16:40 24.2 °C 20.9 °C 1007.3 hPa Calm     82% 0 mm WeatherDisplay:10.37 W/m2 SCT
16:50 24.1 °C 21 °C 1007.3 hPa Calm   1.6 km/h 83% 0 mm WeatherDisplay:10.37 W/m2 SCT
17:00 23.9 °C 21.1 °C 1007.3 hPa Calm     84% 0 mm WeatherDisplay:10.37 W/m2 SCT
17:10 24.1 °C 21.3 °C 1007 hPa Calm     85% 0 mm WeatherDisplay:10.37 W/m2 SCT
17:20 24.1 °C 21.2 °C 1007 hPa Calm   1.6 km/h 84% 0 mm WeatherDisplay:10.37 W/m2 SCT
17:30 24.2 °C 21.1 °C 1007 hPa Calm     83% 0 mm WeatherDisplay:10.37 W/m2 SCT
17:40 24.4 °C 21.3 °C 1007 hPa Calm     83% 0 mm WeatherDisplay:10.37 W/m2 SCT
17:50 24.6 °C 21.3 °C 1007 hPa Calm   1.6 km/h 82% 0 mm WeatherDisplay:10.37 W/m2 SCT
18:00 24.7 °C 21.4 °C 1007 hPa Calm     82% 0 mm WeatherDisplay:10.37 W/m2 SCT
18:10 24.8 °C 21.3 °C 1006.7 hPa Calm   1.6 km/h 81% 0 mm WeatherDisplay:10.37 W/m2 SCT
18:20 24.9 °C 21.4 °C 1006.7 hPa Calm     81% 0 mm WeatherDisplay:10.37 W/m2 SCT
18:30 24.9 °C 21.2 °C 1006.7 hPa Calm   1.6 km/h 80% 0 mm WeatherDisplay:10.37 W/m2 SCT
18:40 24.9 °C 20.4 °C 1006.7 hPa Calm   1.6 km/h 76% 0 mm WeatherDisplay:10.37 W/m2 SCT
18:50 24.8 °C 20.4 °C 1006.7 hPa Calm     77% 0 mm WeatherDisplay:10.37 W/m2 SCT
19:00 24.6 °C 20.1 °C 1006.7 hPa Calm   1.6 km/h 76% 0 mm WeatherDisplay:10.37 W/m2 SCT
19:10 24.2 °C 19.8 °C 1006.7 hPa Calm   1.6 km/h 77% 0 mm WeatherDisplay:10.37 W/m2 SCT
19:20 23.9 °C 19.9 °C 1006.7 hPa Calm     78% 0 mm WeatherDisplay:10.37 W/m2 SCT
19:30 23.8 °C 20.2 °C 1006.7 hPa Calm     80% 0 mm WeatherDisplay:10.37 W/m2 SCT
19:40 23.7 °C 20.3 °C 1006.7 hPa Calm     81% 0 mm WeatherDisplay:10.37 W/m2 SCT
19:50 23.7 °C 20.6 °C 1006.7 hPa Calm     83% 0 mm WeatherDisplay:10.37 W/m2 SCT
20:00 23.6 °C 20.6 °C 1006.7 hPa Calm   1.6 km/h 83% 0 mm WeatherDisplay:10.37 W/m2 SCT
20:10 23.6 °C 20.7 °C 1007 hPa Calm     84% 0 mm WeatherDisplay:10.37 W/m2 SCT
20:20 23.6 °C 20.9 °C 1007 hPa Calm     85% 0 mm WeatherDisplay:10.37 W/m2 SCT
20:30 23.4 °C 20.8 °C 1007 hPa Calm   1.6 km/h 85% 0 mm WeatherDisplay:10.37 W/m2 SCT
20:40 23.3 °C 20.8 °C 1007 hPa Calm   1.6 km/h 86% 0 mm WeatherDisplay:10.37 W/m2 SCT
20:50 23.2 °C 20.7 °C 1007 hPa Calm     86% 0 mm WeatherDisplay:10.37 W/m2 SCT
21:00 23.1 °C 20.8 °C 1007 hPa Calm     87% 0 mm WeatherDisplay:10.37 W/m2 SCT
21:10 22.9 °C 20.8 °C 1007 hPa Calm     88% 0 mm WeatherDisplay:10.37 W/m2 SCT
21:20 22.8 °C 20.7 °C 1007.3 hPa Calm     88% 0 mm WeatherDisplay:10.37 W/m2 SCT
21:30 22.7 °C 20.6 °C 1007.3 hPa Calm     88% 0 mm WeatherDisplay:10.37 W/m2 SCT
21:40 22.6 °C 20.7 °C 1007.3 hPa Calm     89% 0 mm WeatherDisplay:10.37 W/m2 SCT
21:50 22.4 °C 20.6 °C 1007.3 hPa Calm     89% 0 mm WeatherDisplay:10.37 W/m2 SCT
22:00 22.4 °C 20.7 °C 1007.3 hPa Calm     90% 0 mm WeatherDisplay:10.37 W/m2 SCT
22:10 22.3 °C 20.6 °C 1007.3 hPa Calm     90% 0 mm WeatherDisplay:10.37 W/m2 SCT
22:20 22.2 °C 20.5 °C 1007.3 hPa Calm     90% 0 mm WeatherDisplay:10.37 W/m2 SCT
22:30 22.2 °C 20.4 °C 1007.7 hPa Calm     90% 0 mm WeatherDisplay:10.37 W/m2 SCT
22:40 22.1 °C 20.4 °C 1007.7 hPa Calm     90% 0 mm WeatherDisplay:10.37 W/m2 SCT
22:50 22 °C 20.4 °C 1008 hPa Calm     91% 0 mm WeatherDisplay:10.37 W/m2 SCT
23:00 22 °C 20.4 °C 1008 hPa Calm     91% 0 mm WeatherDisplay:10.37 W/m2 SCT
23:10 21.9 °C 20.4 °C 1008 hPa Calm     91% 0 mm WeatherDisplay:10.37 W/m2 SCT
23:20 21.3 °C 20.5 °C 1008 hPa Calm     95% 0 mm WeatherDisplay:10.37 W/m2 SCT
23:30 21.3 °C 20.5 °C 1008 hPa Calm     95% 0 mm WeatherDisplay:10.37 W/m2 SCT
23:40 21.3 °C 20.5 °C 1008 hPa Calm     95% 0 mm WeatherDisplay:10.37 W/m2 SCT
23:50 21.3 °C 20.5 °C 1008.4 hPa Calm     95% 0 mm WeatherDisplay:10.37 W/m2 SCT
Piedmont Bend
Compliments of Weather Underground - 4 mb